sensor_id;sensor_type;location;lat;lon;timestamp;pressure;altitude;pressure_sealevel;temperature;humidity
34124;BME280;13153;52.316;21.166;2023-04-03T00:00:23;100926.94;;;6.84;44.61
34124;BME280;13153;52.316;21.166;2023-04-03T00:02:49;100932.44;;;6.72;43.97
34124;BME280;13153;52.316;21.166;2023-04-03T00:05:15;100929.66;;;6.69;43.97
34124;BME280;13153;52.316;21.166;2023-04-03T00:07:41;100940.88;;;6.67;44.50
34124;BME280;13153;52.316;21.166;2023-04-03T00:10:08;100930.56;;;6.36;44.50
34124;BME280;13153;52.316;21.166;2023-04-03T00:12:33;100942.34;;;6.27;44.96
34124;BME280;13153;52.316;21.166;2023-04-03T00:14:59;100936.47;;;6.32;45.16
34124;BME280;13153;52.316;21.166;2023-04-03T00:17:25;100934.75;;;6.32;45.46
34124;BME280;13153;52.316;21.166;2023-04-03T00:19:51;100935.00;;;6.20;44.90
34124;BME280;13153;52.316;21.166;2023-04-03T00:22:17;100950.59;;;6.19;45.36
34124;BME280;13153;52.316;21.166;2023-04-03T00:24:42;100942.69;;;6.17;45.29
34124;BME280;13153;52.316;21.166;2023-04-03T00:27:08;100944.97;;;5.95;44.58
34124;BME280;13153;52.316;21.166;2023-04-03T00:29:34;100947.66;;;5.96;44.97
34124;BME280;13153;52.316;21.166;2023-04-03T00:32:00;100947.53;;;5.79;45.06
34124;BME280;13153;52.316;21.166;2023-04-03T00:34:26;100941.00;;;5.87;44.95
34124;BME280;13153;52.316;21.166;2023-04-03T00:36:52;100945.31;;;5.86;44.76
34124;BME280;13153;52.316;21.166;2023-04-03T00:39:17;100948.03;;;5.72;45.20
34124;BME280;13153;52.316;21.166;2023-04-03T00:41:43;100946.22;;;5.71;45.00
34124;BME280;13153;52.316;21.166;2023-04-03T00:46:54;100953.56;;;5.78;45.24
34124;BME280;13153;52.316;21.166;2023-04-03T00:49:20;100952.69;;;5.77;45.26
34124;BME280;13153;52.316;21.166;2023-04-03T00:51:46;100946.97;;;5.68;44.96
34124;BME280;13153;52.316;21.166;2023-04-03T00:54:12;100957.66;;;5.73;45.02
34124;BME280;13153;52.316;21.166;2023-04-03T00:56:38;100960.00;;;5.68;45.16
34124;BME280;13153;52.316;21.166;2023-04-03T00:59:13;100955.78;;;5.70;45.01
34124;BME280;13153;52.316;21.166;2023-04-03T01:01:41;100957.97;;;5.62;45.07
34124;BME280;13153;52.316;21.166;2023-04-03T01:04:32;100962.94;;;5.58;45.11
34124;BME280;13153;52.316;21.166;2023-04-03T01:07:04;100961.84;;;5.54;45.38
34124;BME280;13153;52.316;21.166;2023-04-03T01:09:34;100954.94;;;5.55;45.43
34124;BME280;13153;52.316;21.166;2023-04-03T01:12:23;100968.06;;;5.56;45.49
34124;BME280;13153;52.316;21.166;2023-04-03T01:14:56;100961.78;;;5.53;45.16
34124;BME280;13153;52.316;21.166;2023-04-03T01:25:32;100981.66;;;5.51;45.25
34124;BME280;13153;52.316;21.166;2023-04-03T01:27:58;100984.09;;;5.48;45.05
34124;BME280;13153;52.316;21.166;2023-04-03T01:30:30;100988.00;;;5.40;45.33
34124;BME280;13153;52.316;21.166;2023-04-03T01:32:57;100987.69;;;5.50;45.17
34124;BME280;13153;52.316;21.166;2023-04-03T01:35:23;100992.97;;;5.66;45.28
34124;BME280;13153;52.316;21.166;2023-04-03T01:37:49;100994.59;;;5.64;44.91
34124;BME280;13153;52.316;21.166;2023-04-03T01:40:15;100991.16;;;5.65;44.92
34124;BME280;13153;52.316;21.166;2023-04-03T01:42:41;100999.66;;;5.61;45.32
34124;BME280;13153;52.316;21.166;2023-04-03T01:45:07;101002.34;;;5.62;45.14
34124;BME280;13153;52.316;21.166;2023-04-03T01:47:33;101008.63;;;5.66;45.13
34124;BME280;13153;52.316;21.166;2023-04-03T01:49:59;101003.41;;;5.66;44.87
34124;BME280;13153;52.316;21.166;2023-04-03T01:52:24;101006.75;;;5.63;44.98
34124;BME280;13153;52.316;21.166;2023-04-03T01:54:50;101001.91;;;5.55;44.87
34124;BME280;13153;52.316;21.166;2023-04-03T01:57:16;101019.38;;;5.56;45.24
34124;BME280;13153;52.316;21.166;2023-04-03T01:59:42;101015.41;;;5.62;45.18
34124;BME280;13153;52.316;21.166;2023-04-03T02:02:08;101021.97;;;5.56;44.63
34124;BME280;13153;52.316;21.166;2023-04-03T02:04:34;101027.22;;;5.41;45.17
34124;BME280;13153;52.316;21.166;2023-04-03T02:07:00;101010.94;;;5.30;45.00
34124;BME280;13153;52.316;21.166;2023-04-03T02:09:26;101020.84;;;5.21;45.29
34124;BME280;13153;52.316;21.166;2023-04-03T02:11:52;101019.06;;;5.20;45.52
34124;BME280;13153;52.316;21.166;2023-04-03T02:14:18;101026.63;;;5.16;45.12
34124;BME280;13153;52.316;21.166;2023-04-03T02:16:44;101022.97;;;5.12;45.44
34124;BME280;13153;52.316;21.166;2023-04-03T02:19:10;101026.63;;;5.16;45.73
34124;BME280;13153;52.316;21.166;2023-04-03T02:21:36;101034.19;;;5.11;45.38
34124;BME280;13153;52.316;21.166;2023-04-03T02:24:02;101036.09;;;4.99;45.55
34124;BME280;13153;52.316;21.166;2023-04-03T02:26:27;101034.09;;;5.10;45.70
34124;BME280;13153;52.316;21.166;2023-04-03T02:28:53;101040.03;;;5.07;45.45
34124;BME280;13153;52.316;21.166;2023-04-03T02:31:19;101036.81;;;5.11;45.59
34124;BME280;13153;52.316;21.166;2023-04-03T02:33:46;101038.44;;;5.09;45.78
34124;BME280;13153;52.316;21.166;2023-04-03T02:36:12;101032.66;;;5.00;45.81
34124;BME280;13153;52.316;21.166;2023-04-03T02:38:37;101036.09;;;4.99;45.78
34124;BME280;13153;52.316;21.166;2023-04-03T02:41:10;101050.13;;;5.01;46.22
34124;BME280;13153;52.316;21.166;2023-04-03T02:43:37;101049.75;;;4.95;46.09
34124;BME280;13153;52.316;21.166;2023-04-03T02:46:03;101046.88;;;4.90;46.37
34124;BME280;13153;52.316;21.166;2023-04-03T02:48:29;101043.44;;;4.91;46.47
34124;BME280;13153;52.316;21.166;2023-04-03T02:50:55;101051.38;;;4.93;46.12
34124;BME280;13153;52.316;21.166;2023-04-03T02:53:21;101044.44;;;4.93;46.53
34124;BME280;13153;52.316;21.166;2023-04-03T02:55:48;101046.16;;;4.93;46.60
34124;BME280;13153;52.316;21.166;2023-04-03T02:58:14;101045.69;;;4.85;46.21
34124;BME280;13153;52.316;21.166;2023-04-03T03:00:40;101046.31;;;4.81;46.58
34124;BME280;13153;52.316;21.166;2023-04-03T03:03:06;101046.59;;;4.86;46.81
34124;BME280;13153;52.316;21.166;2023-04-03T03:05:32;101043.72;;;4.81;46.57
34124;BME280;13153;52.316;21.166;2023-04-03T03:07:58;101053.59;;;4.87;47.00
34124;BME280;13153;52.316;21.166;2023-04-03T03:10:24;101047.13;;;4.80;46.91
34124;BME280;13153;52.316;21.166;2023-04-03T03:12:50;101048.03;;;4.81;46.95
34124;BME280;13153;52.316;21.166;2023-04-03T03:15:16;101049.53;;;4.77;47.13
34124;BME280;13153;52.316;21.166;2023-04-03T03:17:43;101051.63;;;4.83;47.08
34124;BME280;13153;52.316;21.166;2023-04-03T03:20:10;101055.13;;;4.83;47.07
34124;BME280;13153;52.316;21.166;2023-04-03T03:22:36;101051.00;;;4.87;47.18
34124;BME280;13153;52.316;21.166;2023-04-03T03:25:03;101055.13;;;4.83;46.97
34124;BME280;13153;52.316;21.166;2023-04-03T03:27:29;101051.50;;;4.67;46.97
34124;BME280;13153;52.316;21.166;2023-04-03T03:29:55;101063.91;;;4.71;47.31
34124;BME280;13153;52.316;21.166;2023-04-03T03:32:21;101058.69;;;4.71;46.97
34124;BME280;13153;52.316;21.166;2023-04-03T03:34:46;101057.19;;;4.74;47.00
34124;BME280;13153;52.316;21.166;2023-04-03T03:37:12;101062.81;;;4.67;47.37
34124;BME280;13153;52.316;21.166;2023-04-03T03:39:38;101067.84;;;4.64;47.65
34124;BME280;13153;52.316;21.166;2023-04-03T03:42:04;101060.69;;;4.60;47.68
34124;BME280;13153;52.316;21.166;2023-04-03T03:44:30;101067.22;;;4.53;47.75
34124;BME280;13153;52.316;21.166;2023-04-03T03:46:56;101067.47;;;4.43;47.79
34124;BME280;13153;52.316;21.166;2023-04-03T03:49:22;101067.47;;;4.43;47.79
34124;BME280;13153;52.316;21.166;2023-04-03T03:51:48;101065.84;;;4.45;47.88
34124;BME280;13153;52.316;21.166;2023-04-03T03:54:14;101069.88;;;4.40;47.69
34124;BME280;13153;52.316;21.166;2023-04-03T03:56:40;101074.38;;;4.43;47.70
34124;BME280;13153;52.316;21.166;2023-04-03T03:59:06;101065.94;;;4.47;47.79
34124;BME280;13153;52.316;21.166;2023-04-03T04:01:32;101073.16;;;4.51;47.61
34124;BME280;13153;52.316;21.166;2023-04-03T04:03:58;101067.13;;;4.52;47.93
34124;BME280;13153;52.316;21.166;2023-04-03T04:06:24;101077.47;;;4.50;47.36
34124;BME280;13153;52.316;21.166;2023-04-03T04:08:50;101071.91;;;4.31;48.12
34124;BME280;13153;52.316;21.166;2023-04-03T04:11:16;101072.28;;;4.37;48.18
34124;BME280;13153;52.316;21.166;2023-04-03T04:13:42;101078.88;;;4.45;48.29
34124;BME280;13153;52.316;21.166;2023-04-03T04:16:08;101085.09;;;4.47;47.44
34124;BME280;13153;52.316;21.166;2023-04-03T04:18:35;101082.38;;;4.46;47.55
34124;BME280;13153;52.316;21.166;2023-04-03T04:21:01;101088.88;;;4.52;47.95
34124;BME280;13153;52.316;21.166;2023-04-03T04:23:26;101088.06;;;4.53;47.18
34124;BME280;13153;52.316;21.166;2023-04-03T04:25:52;101087.06;;;4.51;46.93
34124;BME280;13153;52.316;21.166;2023-04-03T04:28:18;101092.66;;;4.57;47.14
34124;BME280;13153;52.316;21.166;2023-04-03T04:30:45;101096.97;;;4.57;47.04
34124;BME280;13153;52.316;21.166;2023-04-03T04:33:11;101096.97;;;4.57;46.95
34124;BME280;13153;52.316;21.166;2023-04-03T04:35:42;101093.56;;;4.58;47.56
34124;BME280;13153;52.316;21.166;2023-04-03T04:38:07;101100.41;;;4.56;47.16
34124;BME280;13153;52.316;21.166;2023-04-03T04:40:34;101102.91;;;4.54;47.42
34124;BME280;13153;52.316;21.166;2023-04-03T04:43:00;101103.44;;;4.63;47.11
34124;BME280;13153;52.316;21.166;2023-04-03T04:45:26;101108.94;;;4.68;46.62
34124;BME280;13153;52.316;21.166;2023-04-03T04:47:51;101115.81;;;4.81;46.59
34124;BME280;13153;52.316;21.166;2023-04-03T04:50:18;101119.06;;;4.91;46.27
34124;BME280;13153;52.316;21.166;2023-04-03T04:52:45;101118.09;;;5.04;45.99
34124;BME280;13153;52.316;21.166;2023-04-03T04:55:11;101128.00;;;5.39;45.34
34124;BME280;13153;52.316;21.166;2023-04-03T04:57:36;101121.50;;;5.91;44.55
34124;BME280;13153;52.316;21.166;2023-04-03T05:00:05;101120.84;;;6.43;43.69
34124;BME280;13153;52.316;21.166;2023-04-03T05:02:31;101121.78;;;6.92;42.68
34124;BME280;13153;52.316;21.166;2023-04-03T05:04:57;101125.25;;;7.09;41.23
34124;BME280;13153;52.316;21.166;2023-04-03T05:07:23;101130.75;;;7.47;41.30
34124;BME280;13153;52.316;21.166;2023-04-03T05:09:49;101126.81;;;7.91;40.15
34124;BME280;13153;52.316;21.166;2023-04-03T05:12:16;101135.94;;;8.35;39.73
34124;BME280;13153;52.316;21.166;2023-04-03T05:14:42;101122.25;;;8.59;38.76
34124;BME280;13153;52.316;21.166;2023-04-03T05:17:08;101138.81;;;8.58;37.79
34124;BME280;13153;52.316;21.166;2023-04-03T05:19:34;101133.13;;;8.69;38.01
34124;BME280;13153;52.316;21.166;2023-04-03T05:21:59;101141.50;;;8.79;38.09
34124;BME280;13153;52.316;21.166;2023-04-03T05:24:25;101130.66;;;9.10;37.87
34124;BME280;13153;52.316;21.166;2023-04-03T05:26:51;101144.13;;;9.18;37.24
34124;BME280;13153;52.316;21.166;2023-04-03T05:32:01;101148.06;;;9.48;36.83
34124;BME280;13153;52.316;21.166;2023-04-03T05:34:27;101146.06;;;9.84;35.41
34124;BME280;13153;52.316;21.166;2023-04-03T05:36:53;101144.41;;;9.86;35.75
34124;BME280;13153;52.316;21.166;2023-04-03T05:39:19;101155.31;;;9.96;35.25
34124;BME280;13153;52.316;21.166;2023-04-03T05:41:45;101157.28;;;10.01;35.10
34124;BME280;13153;52.316;21.166;2023-04-03T05:44:10;101163.47;;;9.60;35.58
34124;BME280;13153;52.316;21.166;2023-04-03T05:46:36;101157.25;;;9.58;35.60
34124;BME280;13153;52.316;21.166;2023-04-03T05:49:02;101160.97;;;9.63;36.19
34124;BME280;13153;52.316;21.166;2023-04-03T05:51:34;101162.69;;;10.25;35.38
34124;BME280;13153;52.316;21.166;2023-04-03T05:54:19;101168.41;;;10.82;34.36
34124;BME280;13153;52.316;21.166;2023-04-03T05:56:46;101164.00;;;11.54;33.41
34124;BME280;13153;52.316;21.166;2023-04-03T05:59:12;101169.06;;;11.73;32.29
34124;BME280;13153;52.316;21.166;2023-04-03T06:01:38;101171.00;;;11.77;32.21
34124;BME280;13153;52.316;21.166;2023-04-03T06:04:03;101170.66;;;11.43;32.95
34124;BME280;13153;52.316;21.166;2023-04-03T06:06:55;101181.81;;;10.88;33.13
34124;BME280;13153;52.316;21.166;2023-04-03T06:09:26;101170.28;;;10.19;33.92
34124;BME280;13153;52.316;21.166;2023-04-03T06:11:53;101175.94;;;9.86;34.64
34124;BME280;13153;52.316;21.166;2023-04-03T06:14:19;101172.34;;;10.05;34.81
34124;BME280;13153;52.316;21.166;2023-04-03T06:16:45;101176.66;;;10.46;34.13
34124;BME280;13153;52.316;21.166;2023-04-03T06:19:11;101176.97;;;11.00;33.03
34124;BME280;13153;52.316;21.166;2023-04-03T06:21:38;101175.09;;;11.95;32.27
34124;BME280;13153;52.316;21.166;2023-04-03T06:24:05;101185.41;;;12.69;31.04
34124;BME280;13153;52.316;21.166;2023-04-03T06:26:32;101182.84;;;12.17;31.53
34124;BME280;13153;52.316;21.166;2023-04-03T06:28:58;101193.19;;;11.35;32.49
34124;BME280;13153;52.316;21.166;2023-04-03T06:31:24;101187.75;;;11.06;32.85
34124;BME280;13153;52.316;21.166;2023-04-03T06:33:50;101200.22;;;12.64;30.96
34124;BME280;13153;52.316;21.166;2023-04-03T06:36:20;101195.84;;;14.24;28.61
34124;BME280;13153;52.316;21.166;2023-04-03T06:38:47;101199.44;;;13.58;29.31
34124;BME280;13153;52.316;21.166;2023-04-03T06:41:15;101199.19;;;13.49;29.36
34124;BME280;13153;52.316;21.166;2023-04-03T06:43:43;101197.09;;;13.07;29.52
34124;BME280;13153;52.316;21.166;2023-04-03T06:46:17;101196.59;;;12.07;30.49
34124;BME280;13153;52.316;21.166;2023-04-03T06:48:44;101207.84;;;12.01;31.31
34124;BME280;13153;52.316;21.166;2023-04-03T06:51:28;101213.81;;;13.06;29.79
34124;BME280;13153;52.316;21.166;2023-04-03T06:53:57;101218.69;;;12.93;29.69
34124;BME280;13153;52.316;21.166;2023-04-03T06:56:25;101214.34;;;12.66;30.60
34124;BME280;13153;52.316;21.166;2023-04-03T06:58:53;101207.00;;;12.56;30.20
34124;BME280;13153;52.316;21.166;2023-04-03T07:01:29;101210.72;;;13.19;29.38
34124;BME280;13153;52.316;21.166;2023-04-03T07:03:56;101206.69;;;13.34;28.84
34124;BME280;13153;52.316;21.166;2023-04-03T07:06:21;101204.41;;;13.79;29.06
34124;BME280;13153;52.316;21.166;2023-04-03T07:08:47;101213.69;;;14.31;28.80
34124;BME280;13153;52.316;21.166;2023-04-03T07:11:16;101223.44;;;13.99;28.06
34124;BME280;13153;52.316;21.166;2023-04-03T07:13:43;101216.84;;;14.16;28.50
34124;BME280;13153;52.316;21.166;2023-04-03T07:16:09;101223.50;;;14.35;28.17
34124;BME280;13153;52.316;21.166;2023-04-03T07:18:35;101220.44;;;14.19;27.38
34124;BME280;13153;52.316;21.166;2023-04-03T07:21:03;101216.41;;;14.34;28.34
34124;BME280;13153;52.316;21.166;2023-04-03T07:23:29;101224.22;;;15.04;27.72
34124;BME280;13153;52.316;21.166;2023-04-03T07:25:55;101225.34;;;14.75;26.82
34124;BME280;13153;52.316;21.166;2023-04-03T07:28:22;101229.91;;;15.23;27.41
34124;BME280;13153;52.316;21.166;2023-04-03T07:30:59;101224.00;;;15.36;26.58
34124;BME280;13153;52.316;21.166;2023-04-03T07:33:25;101230.19;;;14.94;26.44
34124;BME280;13153;52.316;21.166;2023-04-03T07:35:51;101231.06;;;14.93;26.86
34124;BME280;13153;52.316;21.166;2023-04-03T07:38:17;101229.44;;;14.26;27.55
34124;BME280;13153;52.316;21.166;2023-04-03T07:40:48;101230.03;;;13.48;27.43
34124;BME280;13153;52.316;21.166;2023-04-03T07:43:17;101243.09;;;13.14;29.74
34124;BME280;13153;52.316;21.166;2023-04-03T07:45:44;101241.25;;;12.83;28.41
34124;BME280;13153;52.316;21.166;2023-04-03T07:48:11;101241.19;;;12.26;29.38
34124;BME280;13153;52.316;21.166;2023-04-03T07:50:40;101241.59;;;12.38;29.33
34124;BME280;13153;52.316;21.166;2023-04-03T07:53:06;101240.53;;;11.81;29.72
34124;BME280;13153;52.316;21.166;2023-04-03T07:55:33;101238.44;;;11.96;29.16
34124;BME280;13153;52.316;21.166;2023-04-03T07:57:59;101233.69;;;11.86;29.95
34124;BME280;13153;52.316;21.166;2023-04-03T08:00:25;101234.41;;;11.58;31.05
34124;BME280;13153;52.316;21.166;2023-04-03T08:02:51;101233.88;;;11.19;32.18
34124;BME280;13153;52.316;21.166;2023-04-03T08:05:20;101227.66;;;11.41;29.94
34124;BME280;13153;52.316;21.166;2023-04-03T08:07:47;101229.00;;;11.53;29.77
34124;BME280;13153;52.316;21.166;2023-04-03T08:10:14;101233.56;;;11.59;31.01
34124;BME280;13153;52.316;21.166;2023-04-03T08:12:41;101235.47;;;11.63;31.58
34124;BME280;13153;52.316;21.166;2023-04-03T08:15:08;101218.56;;;11.80;29.10
34124;BME280;13153;52.316;21.166;2023-04-03T08:17:34;101230.78;;;11.78;28.62
34124;BME280;13153;52.316;21.166;2023-04-03T08:20:02;101233.28;;;11.50;30.13
34124;BME280;13153;52.316;21.166;2023-04-03T08:22:28;101233.75;;;11.64;29.88
34124;BME280;13153;52.316;21.166;2023-04-03T08:24:55;101248.56;;;11.84;29.68
34124;BME280;13153;52.316;21.166;2023-04-03T08:27:20;101247.44;;;10.40;28.89
34124;BME280;13153;52.316;21.166;2023-04-03T08:29:46;101251.00;;;9.40;31.27
34124;BME280;13153;52.316;21.166;2023-04-03T08:32:18;101235.72;;;8.55;31.43
34124;BME280;13153;52.316;21.166;2023-04-03T08:34:44;101238.41;;;8.57;31.73
34124;BME280;13153;52.316;21.166;2023-04-03T08:37:10;101250.28;;;8.86;31.81
34124;BME280;13153;52.316;21.166;2023-04-03T08:39:36;101267.56;;;9.00;30.82
34124;BME280;13153;52.316;21.166;2023-04-03T08:42:16;101246.47;;;9.16;31.68
34124;BME280;13153;52.316;21.166;2023-04-03T08:45:17;101256.53;;;9.07;32.17
34124;BME280;13153;52.316;21.166;2023-04-03T08:48:02;101258.06;;;9.41;32.28
34124;BME280;13153;52.316;21.166;2023-04-03T08:50:40;101254.97;;;10.10;30.91
34124;BME280;13153;52.316;21.166;2023-04-03T08:53:17;101249.59;;;10.28;28.47
34124;BME280;13153;52.316;21.166;2023-04-03T08:55:50;101264.75;;;9.93;29.50
34124;BME280;13153;52.316;21.166;2023-04-03T08:58:24;101264.75;;;9.93;29.98
34124;BME280;13153;52.316;21.166;2023-04-03T09:01:16;101250.72;;;10.14;30.06
34124;BME280;13153;52.316;21.166;2023-04-03T09:03:42;101259.94;;;9.83;30.22
34124;BME280;13153;52.316;21.166;2023-04-03T09:06:25;101247.13;;;10.12;30.14
34124;BME280;13153;52.316;21.166;2023-04-03T09:12:21;101255.78;;;10.29;29.49
34124;BME280;13153;52.316;21.166;2023-04-03T09:15:23;101259.25;;;10.08;29.72
34124;BME280;13153;52.316;21.166;2023-04-03T09:18:05;101260.72;;;10.21;29.60
34124;BME280;13153;52.316;21.166;2023-04-03T09:23:46;101257.13;;;10.41;30.31
34124;BME280;13153;52.316;21.166;2023-04-03T09:26:41;101267.66;;;10.41;29.45
34124;BME280;13153;52.316;21.166;2023-04-03T09:29:18;101264.38;;;10.47;29.28
34124;BME280;13153;52.316;21.166;2023-04-03T09:31:50;101276.88;;;10.11;29.93
34124;BME280;13153;52.316;21.166;2023-04-03T09:34:36;101274.31;;;9.91;30.34
34124;BME280;13153;52.316;21.166;2023-04-03T09:37:04;101271.47;;;9.87;30.42
34124;BME280;13153;52.316;21.166;2023-04-03T09:39:52;101262.94;;;9.92;30.33
34124;BME280;13153;52.316;21.166;2023-04-03T09:42:21;101263.84;;;9.72;29.98
34124;BME280;13153;52.316;21.166;2023-04-03T09:45:00;101259.81;;;9.80;30.31
34124;BME280;13153;52.316;21.166;2023-04-03T09:47:35;101261.34;;;9.96;30.30
34124;BME280;13153;52.316;21.166;2023-04-03T09:50:28;101270.72;;;9.89;30.04
34124;BME280;13153;52.316;21.166;2023-04-03T09:52:55;101267.38;;;9.93;30.44
34124;BME280;13153;52.316;21.166;2023-04-03T09:55:27;101275.06;;;9.68;30.41
34124;BME280;13153;52.316;21.166;2023-04-03T09:58:00;101268.13;;;9.70;30.89
34124;BME280;13153;52.316;21.166;2023-04-03T10:00:36;101266.75;;;9.78;29.77
34124;BME280;13153;52.316;21.166;2023-04-03T10:03:04;101267.59;;;9.58;29.58
34124;BME280;13153;52.316;21.166;2023-04-03T10:05:40;101278.78;;;9.35;30.57
34124;BME280;13153;52.316;21.166;2023-04-03T10:14:02;101269.09;;;9.34;31.35
34124;BME280;13153;52.316;21.166;2023-04-03T10:16:41;101274.66;;;9.20;31.07
34124;BME280;13153;52.316;21.166;2023-04-03T10:19:43;101272.63;;;9.34;30.71
34124;BME280;13153;52.316;21.166;2023-04-03T10:28:57;101265.47;;;8.93;32.04
34124;BME280;13153;52.316;21.166;2023-04-03T10:34:37;101259.38;;;9.50;30.35
34124;BME280;13153;52.316;21.166;2023-04-03T10:37:30;101267.44;;;9.74;30.21
34124;BME280;13153;52.316;21.166;2023-04-03T10:40:39;101259.91;;;9.05;30.41
34124;BME280;13153;52.316;21.166;2023-04-03T10:43:33;101242.69;;;8.55;32.27
34124;BME280;13153;52.316;21.166;2023-04-03T10:46:23;101250.91;;;8.27;31.00
34124;BME280;13153;52.316;21.166;2023-04-03T10:49:30;101258.09;;;8.67;31.87
34124;BME280;13153;52.316;21.166;2023-04-03T10:54:49;101249.19;;;9.00;31.77
34124;BME280;13153;52.316;21.166;2023-04-03T10:57:22;101240.84;;;9.09;31.50
34124;BME280;13153;52.316;21.166;2023-04-03T11:00:25;101252.19;;;9.46;31.45
34124;BME280;13153;52.316;21.166;2023-04-03T11:03:00;101258.03;;;9.60;31.19
34124;BME280;13153;52.316;21.166;2023-04-03T11:08:56;101265.72;;;9.36;31.96
34124;BME280;13153;52.316;21.166;2023-04-03T11:11:09;101263.63;;;9.68;32.28
34124;BME280;13153;52.316;21.166;2023-04-03T11:16:39;101258.88;;;9.40;31.84
34124;BME280;13153;52.316;21.166;2023-04-03T11:19:20;101257.91;;;9.57;33.41
34124;BME280;13153;52.316;21.166;2023-04-03T11:22:19;101251.44;;;10.10;31.92
34124;BME280;13153;52.316;21.166;2023-04-03T11:27:45;101241.03;;;10.13;30.56
34124;BME280;13153;52.316;21.166;2023-04-03T11:30:27;101254.50;;;9.79;30.99
34124;BME280;13153;52.316;21.166;2023-04-03T11:35:54;101239.25;;;9.12;32.71
34124;BME280;13153;52.316;21.166;2023-04-03T11:38:36;101231.56;;;9.36;31.61
34124;BME280;13153;52.316;21.166;2023-04-03T11:41:08;101230.88;;;9.40;30.21
34124;BME280;13153;52.316;21.166;2023-04-03T11:43:43;101246.84;;;9.25;30.39
34124;BME280;13153;52.316;21.166;2023-04-03T11:46:22;101228.56;;;9.08;30.25
34124;BME280;13153;52.316;21.166;2023-04-03T11:48:50;101224.13;;;8.70;30.25
34124;BME280;13153;52.316;21.166;2023-04-03T11:53:54;101209.19;;;8.86;32.28
34124;BME280;13153;52.316;21.166;2023-04-03T11:56:40;101221.56;;;9.08;31.76
34124;BME280;13153;52.316;21.166;2023-04-03T12:01:49;101223.13;;;9.43;30.52
34124;BME280;13153;52.316;21.166;2023-04-03T12:04:19;101223.06;;;9.61;31.45
34124;BME280;13153;52.316;21.166;2023-04-03T12:12:32;101212.31;;;10.17;30.04
34124;BME280;13153;52.316;21.166;2023-04-03T12:35:08;101223.31;;;9.67;30.19
34124;BME280;13153;52.316;21.166;2023-04-03T12:46:47;101214.13;;;9.77;30.14
34124;BME280;13153;52.316;21.166;2023-04-03T12:49:38;101215.38;;;9.86;28.49
34124;BME280;13153;52.316;21.166;2023-04-03T12:52:29;101218.38;;;9.96;29.27
34124;BME280;13153;52.316;21.166;2023-04-03T12:55:00;101214.59;;;9.89;29.20
34124;BME280;13153;52.316;21.166;2023-04-03T12:57:30;101213.53;;;10.05;29.55
34124;BME280;13153;52.316;21.166;2023-04-03T12:59:56;101235.19;;;9.99;30.66
34124;BME280;13153;52.316;21.166;2023-04-03T13:02:31;101217.13;;;10.07;29.86
34124;BME280;13153;52.316;21.166;2023-04-03T13:05:07;101219.09;;;9.71;29.94
34124;BME280;13153;52.316;21.166;2023-04-03T13:07:36;101228.38;;;9.83;29.84
34124;BME280;13153;52.316;21.166;2023-04-03T13:12:56;101211.16;;;10.11;31.00
34124;BME280;13153;52.316;21.166;2023-04-03T13:15:29;101222.47;;;10.29;30.64
34124;BME280;13153;52.316;21.166;2023-04-03T13:17:57;101218.50;;;10.40;30.35
34124;BME280;13153;52.316;21.166;2023-04-03T13:20:35;101211.94;;;10.51;30.41
34124;BME280;13153;52.316;21.166;2023-04-03T13:23:12;101224.00;;;10.67;30.72
34124;BME280;13153;52.316;21.166;2023-04-03T13:25:45;101224.34;;;10.76;30.58
34124;BME280;13153;52.316;21.166;2023-04-03T13:28:20;101219.91;;;10.53;29.97
34124;BME280;13153;52.316;21.166;2023-04-03T13:33:36;101203.47;;;10.58;29.41
34124;BME280;13153;52.316;21.166;2023-04-03T13:36:28;101204.06;;;10.29;29.96
34124;BME280;13153;52.316;21.166;2023-04-03T13:39:27;101206.31;;;10.20;29.88
34124;BME280;13153;52.316;21.166;2023-04-03T13:42:15;101206.66;;;10.08;30.33
34124;BME280;13153;52.316;21.166;2023-04-03T13:44:41;101215.06;;;10.00;31.49
34124;BME280;13153;52.316;21.166;2023-04-03T13:49:40;101206.22;;;9.98;29.67
34124;BME280;13153;52.316;21.166;2023-04-03T13:52:49;101209.53;;;9.93;30.30
34124;BME280;13153;52.316;21.166;2023-04-03T13:55:27;101203.25;;;10.11;30.37
34124;BME280;13153;52.316;21.166;2023-04-03T13:57:58;101217.28;;;10.31;30.21
34124;BME280;13153;52.316;21.166;2023-04-03T14:03:57;101202.44;;;10.12;29.19
34124;BME280;13153;52.316;21.166;2023-04-03T14:06:24;101210.72;;;9.79;29.12
34124;BME280;13153;52.316;21.166;2023-04-03T14:08:51;101215.72;;;9.54;30.85
34124;BME280;13153;52.316;21.166;2023-04-03T14:11:27;101208.06;;;9.58;30.68
34124;BME280;13153;52.316;21.166;2023-04-03T14:13:57;101208.91;;;9.78;31.23
34124;BME280;13153;52.316;21.166;2023-04-03T14:16:29;101208.25;;;9.84;30.33
34124;BME280;13153;52.316;21.166;2023-04-03T14:18:56;101205.47;;;9.79;30.08
34124;BME280;13153;52.316;21.166;2023-04-03T14:21:22;101199.28;;;10.00;30.27
34124;BME280;13153;52.316;21.166;2023-04-03T14:23:49;101203.97;;;10.07;29.35
34124;BME280;13153;52.316;21.166;2023-04-03T14:26:23;101209.47;;;10.13;29.60
34124;BME280;13153;52.316;21.166;2023-04-03T14:28:53;101213.59;;;10.06;30.02
34124;BME280;13153;52.316;21.166;2023-04-03T14:31:24;101203.13;;;10.08;30.13
34124;BME280;13153;52.316;21.166;2023-04-03T14:33:52;101209.59;;;9.95;29.86
34124;BME280;13153;52.316;21.166;2023-04-03T14:36:22;101205.94;;;9.91;30.63
34124;BME280;13153;52.316;21.166;2023-04-03T14:38:49;101197.69;;;9.82;30.59
34124;BME280;13153;52.316;21.166;2023-04-03T14:41:20;101200.75;;;9.93;30.74
34124;BME280;13153;52.316;21.166;2023-04-03T14:43:47;101201.72;;;9.95;30.38
34124;BME280;13153;52.316;21.166;2023-04-03T14:48:42;101203.31;;;9.91;29.98